sensor_id;sensor_type;location;lat;lon;timestamp;P1;durP1;ratioP1;P2;durP2;ratioP2
32196;SDS011;18697;42.770;23.400;2023-08-08T00:01:28;3.05;;;0.63;;
32196;SDS011;18697;42.770;23.400;2023-08-08T00:03:53;0.77;;;0.77;;
32196;SDS011;18697;42.770;23.400;2023-08-08T00:06:19;3.53;;;0.68;;
32196;SDS011;18697;42.770;23.400;2023-08-08T00:08:44;1.48;;;0.85;;
32196;SDS011;18697;42.770;23.400;2023-08-08T00:11:09;1.17;;;0.70;;
32196;SDS011;18697;42.770;23.400;2023-08-08T00:13:36;2.28;;;0.75;;
32196;SDS011;18697;42.770;23.400;2023-08-08T00:16:01;2.60;;;0.65;;
32196;SDS011;18697;42.770;23.400;2023-08-08T00:18:27;5.05;;;0.68;;
32196;SDS011;18697;42.770;23.400;2023-08-08T00:20:53;0.60;;;0.60;;
32196;SDS011;18697;42.770;23.400;2023-08-08T00:23:18;0.60;;;0.40;;
32196;SDS011;18697;42.770;23.400;2023-08-08T00:25:44;2.70;;;0.95;;
32196;SDS011;18697;42.770;23.400;2023-08-08T00:28:14;2.25;;;0.77;;
32196;SDS011;18697;42.770;23.400;2023-08-08T00:30:40;0.93;;;0.60;;
32196;SDS011;18697;42.770;23.400;2023-08-08T00:33:05;0.63;;;0.60;;
32196;SDS011;18697;42.770;23.400;2023-08-08T00:35:31;0.73;;;0.63;;
32196;SDS011;18697;42.770;23.400;2023-08-08T00:37:56;0.70;;;0.70;;
32196;SDS011;18697;42.770;23.400;2023-08-08T00:40:22;1.17;;;0.50;;
32196;SDS011;18697;42.770;23.400;2023-08-08T00:42:47;0.52;;;0.50;;
32196;SDS011;18697;42.770;23.400;2023-08-08T00:45:12;0.50;;;0.50;;
32196;SDS011;18697;42.770;23.400;2023-08-08T00:47:38;0.70;;;0.60;;
32196;SDS011;18697;42.770;23.400;2023-08-08T00:50:03;3.25;;;0.63;;
32196;SDS011;18697;42.770;23.400;2023-08-08T00:52:29;2.83;;;1.20;;
32196;SDS011;18697;42.770;23.400;2023-08-08T00:54:55;2.47;;;0.55;;
32196;SDS011;18697;42.770;23.400;2023-08-08T00:57:21;1.10;;;0.68;;
32196;SDS011;18697;42.770;23.400;2023-08-08T00:59:47;0.68;;;0.60;;
32196;SDS011;18697;42.770;23.400;2023-08-08T01:02:13;2.40;;;0.80;;
32196;SDS011;18697;42.770;23.400;2023-08-08T01:04:38;2.40;;;0.68;;
32196;SDS011;18697;42.770;23.400;2023-08-08T01:10:15;1.65;;;0.80;;
32196;SDS011;18697;42.770;23.400;2023-08-08T01:12:45;1.23;;;0.77;;
32196;SDS011;18697;42.770;23.400;2023-08-08T01:15:14;3.28;;;0.60;;
32196;SDS011;18697;42.770;23.400;2023-08-08T01:17:40;0.75;;;0.70;;
32196;SDS011;18697;42.770;23.400;2023-08-08T01:20:07;0.75;;;0.60;;
32196;SDS011;18697;42.770;23.400;2023-08-08T01:22:56;2.30;;;0.70;;
32196;SDS011;18697;42.770;23.400;2023-08-08T01:25:39;0.50;;;0.50;;
32196;SDS011;18697;42.770;23.400;2023-08-08T01:28:05;2.38;;;0.70;;
32196;SDS011;18697;42.770;23.400;2023-08-08T01:30:31;0.93;;;0.63;;
32196;SDS011;18697;42.770;23.400;2023-08-08T01:32:57;2.92;;;0.70;;
32196;SDS011;18697;42.770;23.400;2023-08-08T01:35:22;0.57;;;0.50;;
32196;SDS011;18697;42.770;23.400;2023-08-08T01:37:52;1.55;;;0.50;;
32196;SDS011;18697;42.770;23.400;2023-08-08T01:40:21;1.85;;;0.70;;
32196;SDS011;18697;42.770;23.400;2023-08-08T01:42:47;3.97;;;0.60;;
32196;SDS011;18697;42.770;23.400;2023-08-08T01:45:17;2.03;;;0.82;;
32196;SDS011;18697;42.770;23.400;2023-08-08T01:47:48;2.63;;;0.52;;
32196;SDS011;18697;42.770;23.400;2023-08-08T01:50:15;3.63;;;0.60;;
32196;SDS011;18697;42.770;23.400;2023-08-08T01:52:40;2.47;;;0.82;;
32196;SDS011;18697;42.770;23.400;2023-08-08T01:55:06;1.42;;;0.60;;
32196;SDS011;18697;42.770;23.400;2023-08-08T01:57:31;1.40;;;0.98;;
32196;SDS011;18697;42.770;23.400;2023-08-08T01:59:57;1.05;;;0.63;;
32196;SDS011;18697;42.770;23.400;2023-08-08T02:02:22;1.75;;;0.65;;
32196;SDS011;18697;42.770;23.400;2023-08-08T02:04:47;3.65;;;0.50;;
32196;SDS011;18697;42.770;23.400;2023-08-08T02:07:13;2.00;;;0.77;;
32196;SDS011;18697;42.770;23.400;2023-08-08T02:09:39;1.25;;;0.70;;
32196;SDS011;18697;42.770;23.400;2023-08-08T02:12:04;0.85;;;0.68;;
32196;SDS011;18697;42.770;23.400;2023-08-08T02:14:30;1.63;;;0.88;;
32196;SDS011;18697;42.770;23.400;2023-08-08T02:16:55;0.63;;;0.60;;
32196;SDS011;18697;42.770;23.400;2023-08-08T02:19:21;4.88;;;0.80;;
32196;SDS011;18697;42.770;23.400;2023-08-08T02:21:46;1.67;;;0.90;;
32196;SDS011;18697;42.770;23.400;2023-08-08T02:24:11;0.68;;;0.60;;
32196;SDS011;18697;42.770;23.400;2023-08-08T02:26:37;2.08;;;0.70;;
32196;SDS011;18697;42.770;23.400;2023-08-08T02:29:02;1.92;;;0.70;;
32196;SDS011;18697;42.770;23.400;2023-08-08T02:31:28;2.17;;;0.55;;
32196;SDS011;18697;42.770;23.400;2023-08-08T02:33:53;2.55;;;0.95;;
32196;SDS011;18697;42.770;23.400;2023-08-08T02:36:19;1.08;;;0.82;;
32196;SDS011;18697;42.770;23.400;2023-08-08T02:38:45;0.70;;;0.70;;
32196;SDS011;18697;42.770;23.400;2023-08-08T02:41:10;4.05;;;0.73;;
32196;SDS011;18697;42.770;23.400;2023-08-08T02:43:36;0.90;;;0.80;;
32196;SDS011;18697;42.770;23.400;2023-08-08T02:46:01;1.23;;;1.00;;
32196;SDS011;18697;42.770;23.400;2023-08-08T02:48:27;1.95;;;0.90;;
32196;SDS011;18697;42.770;23.400;2023-08-08T02:50:53;0.80;;;0.68;;
32196;SDS011;18697;42.770;23.400;2023-08-08T02:53:19;0.65;;;0.65;;
32196;SDS011;18697;42.770;23.400;2023-08-08T02:55:44;1.55;;;0.90;;
32196;SDS011;18697;42.770;23.400;2023-08-08T02:58:10;1.38;;;0.60;;
32196;SDS011;18697;42.770;23.400;2023-08-08T03:00:35;0.70;;;0.70;;
32196;SDS011;18697;42.770;23.400;2023-08-08T03:03:00;1.45;;;0.80;;
32196;SDS011;18697;42.770;23.400;2023-08-08T03:05:26;0.80;;;0.80;;
32196;SDS011;18697;42.770;23.400;2023-08-08T03:07:51;1.77;;;0.70;;
32196;SDS011;18697;42.770;23.400;2023-08-08T03:10:16;1.85;;;0.80;;
32196;SDS011;18697;42.770;23.400;2023-08-08T03:12:42;1.10;;;0.90;;
32196;SDS011;18697;42.770;23.400;2023-08-08T03:15:07;1.13;;;0.60;;
32196;SDS011;18697;42.770;23.400;2023-08-08T03:17:33;0.80;;;0.80;;
32196;SDS011;18697;42.770;23.400;2023-08-08T03:19:59;1.13;;;1.02;;
32196;SDS011;18697;42.770;23.400;2023-08-08T03:22:25;3.55;;;0.88;;
32196;SDS011;18697;42.770;23.400;2023-08-08T03:24:50;1.23;;;1.10;;
32196;SDS011;18697;42.770;23.400;2023-08-08T03:27:16;0.85;;;0.80;;
32196;SDS011;18697;42.770;23.400;2023-08-08T03:29:41;1.48;;;0.95;;
32196;SDS011;18697;42.770;23.400;2023-08-08T03:32:07;1.10;;;1.00;;
32196;SDS011;18697;42.770;23.400;2023-08-08T03:34:32;2.45;;;1.20;;
32196;SDS011;18697;42.770;23.400;2023-08-08T03:36:57;1.00;;;0.90;;
32196;SDS011;18697;42.770;23.400;2023-08-08T03:39:23;4.22;;;1.90;;
32196;SDS011;18697;42.770;23.400;2023-08-08T03:41:48;9.82;;;7.18;;
32196;SDS011;18697;42.770;23.400;2023-08-08T03:44:14;10.25;;;7.70;;
32196;SDS011;18697;42.770;23.400;2023-08-08T03:46:39;12.38;;;7.82;;
32196;SDS011;18697;42.770;23.400;2023-08-08T03:49:04;12.50;;;6.75;;
32196;SDS011;18697;42.770;23.400;2023-08-08T03:51:30;9.52;;;6.10;;
32196;SDS011;18697;42.770;23.400;2023-08-08T03:53:55;5.05;;;3.72;;
32196;SDS011;18697;42.770;23.400;2023-08-08T03:56:20;10.50;;;7.13;;
32196;SDS011;18697;42.770;23.400;2023-08-08T03:58:46;3.25;;;2.90;;
32196;SDS011;18697;42.770;23.400;2023-08-08T04:01:11;7.47;;;5.25;;
32196;SDS011;18697;42.770;23.400;2023-08-08T04:03:37;4.65;;;3.65;;
32196;SDS011;18697;42.770;23.400;2023-08-08T04:06:02;6.18;;;5.38;;
32196;SDS011;18697;42.770;23.400;2023-08-08T04:08:28;7.55;;;5.03;;
32196;SDS011;18697;42.770;23.400;2023-08-08T04:10:53;4.53;;;2.83;;
32196;SDS011;18697;42.770;23.400;2023-08-08T04:13:19;2.88;;;2.67;;
32196;SDS011;18697;42.770;23.400;2023-08-08T04:15:45;3.97;;;3.05;;
32196;SDS011;18697;42.770;23.400;2023-08-08T04:18:10;4.60;;;4.05;;
32196;SDS011;18697;42.770;23.400;2023-08-08T04:20:35;6.05;;;4.28;;
32196;SDS011;18697;42.770;23.400;2023-08-08T04:23:01;5.18;;;3.97;;
32196;SDS011;18697;42.770;23.400;2023-08-08T04:25:26;6.75;;;3.67;;
32196;SDS011;18697;42.770;23.400;2023-08-08T04:27:52;5.72;;;3.67;;
32196;SDS011;18697;42.770;23.400;2023-08-08T04:30:18;3.85;;;3.47;;
32196;SDS011;18697;42.770;23.400;2023-08-08T04:32:44;3.05;;;2.72;;
32196;SDS011;18697;42.770;23.400;2023-08-08T04:35:09;4.00;;;3.00;;
32196;SDS011;18697;42.770;23.400;2023-08-08T04:37:35;5.43;;;3.13;;
32196;SDS011;18697;42.770;23.400;2023-08-08T04:40:00;8.98;;;3.42;;
32196;SDS011;18697;42.770;23.400;2023-08-08T04:42:26;5.55;;;2.63;;
32196;SDS011;18697;42.770;23.400;2023-08-08T04:44:51;3.67;;;2.50;;
32196;SDS011;18697;42.770;23.400;2023-08-08T04:47:16;4.13;;;2.72;;
32196;SDS011;18697;42.770;23.400;2023-08-08T04:49:42;5.65;;;2.42;;
32196;SDS011;18697;42.770;23.400;2023-08-08T04:52:07;4.32;;;2.35;;
32196;SDS011;18697;42.770;23.400;2023-08-08T04:54:32;2.10;;;1.90;;
32196;SDS011;18697;42.770;23.400;2023-08-08T04:56:58;2.63;;;2.22;;
32196;SDS011;18697;42.770;23.400;2023-08-08T04:59:23;2.88;;;2.38;;
32196;SDS011;18697;42.770;23.400;2023-08-08T05:01:48;2.50;;;2.30;;
32196;SDS011;18697;42.770;23.400;2023-08-08T05:04:14;3.28;;;2.97;;
32196;SDS011;18697;42.770;23.400;2023-08-08T05:06:39;7.47;;;3.42;;
32196;SDS011;18697;42.770;23.400;2023-08-08T05:09:04;5.45;;;3.08;;
32196;SDS011;18697;42.770;23.400;2023-08-08T05:11:30;3.30;;;3.03;;
32196;SDS011;18697;42.770;23.400;2023-08-08T05:13:55;2.72;;;2.53;;
32196;SDS011;18697;42.770;23.400;2023-08-08T05:16:20;4.13;;;3.67;;
32196;SDS011;18697;42.770;23.400;2023-08-08T05:18:47;3.60;;;3.30;;
32196;SDS011;18697;42.770;23.400;2023-08-08T05:21:13;7.90;;;3.28;;
32196;SDS011;18697;42.770;23.400;2023-08-08T05:23:38;4.00;;;3.60;;
32196;SDS011;18697;42.770;23.400;2023-08-08T05:26:03;3.75;;;3.17;;
32196;SDS011;18697;42.770;23.400;2023-08-08T05:28:29;4.40;;;2.90;;
32196;SDS011;18697;42.770;23.400;2023-08-08T05:30:54;3.00;;;2.70;;
32196;SDS011;18697;42.770;23.400;2023-08-08T05:33:21;3.60;;;3.22;;
32196;SDS011;18697;42.770;23.400;2023-08-08T05:35:47;3.97;;;2.72;;
32196;SDS011;18697;42.770;23.400;2023-08-08T05:38:12;2.83;;;2.58;;
32196;SDS011;18697;42.770;23.400;2023-08-08T05:40:38;3.17;;;2.33;;
32196;SDS011;18697;42.770;23.400;2023-08-08T05:43:03;2.72;;;2.53;;
32196;SDS011;18697;42.770;23.400;2023-08-08T05:45:29;6.25;;;2.30;;
32196;SDS011;18697;42.770;23.400;2023-08-08T05:47:54;3.80;;;2.30;;
32196;SDS011;18697;42.770;23.400;2023-08-08T05:50:21;2.13;;;2.03;;
32196;SDS011;18697;42.770;23.400;2023-08-08T05:52:46;2.58;;;1.80;;
32196;SDS011;18697;42.770;23.400;2023-08-08T05:55:12;3.90;;;2.20;;
32196;SDS011;18697;42.770;23.400;2023-08-08T05:57:37;3.13;;;1.90;;
32196;SDS011;18697;42.770;23.400;2023-08-08T06:00:03;2.55;;;1.70;;
32196;SDS011;18697;42.770;23.400;2023-08-08T06:02:30;4.05;;;1.60;;
32196;SDS011;18697;42.770;23.400;2023-08-08T06:04:55;2.55;;;1.75;;
32196;SDS011;18697;42.770;23.400;2023-08-08T06:07:21;4.20;;;1.80;;
32196;SDS011;18697;42.770;23.400;2023-08-08T06:09:47;6.35;;;2.00;;
32196;SDS011;18697;42.770;23.400;2023-08-08T06:12:12;2.00;;;1.90;;
32196;SDS011;18697;42.770;23.400;2023-08-08T06:14:37;1.83;;;1.73;;
32196;SDS011;18697;42.770;23.400;2023-08-08T06:17:03;7.93;;;1.73;;
32196;SDS011;18697;42.770;23.400;2023-08-08T06:19:28;4.88;;;1.50;;
32196;SDS011;18697;42.770;23.400;2023-08-08T06:21:54;1.40;;;1.40;;
32196;SDS011;18697;42.770;23.400;2023-08-08T06:24:19;3.05;;;1.73;;
32196;SDS011;18697;42.770;23.400;2023-08-08T06:26:45;1.27;;;1.15;;
32196;SDS011;18697;42.770;23.400;2023-08-08T06:29:10;2.15;;;1.40;;
32196;SDS011;18697;42.770;23.400;2023-08-08T06:31:37;6.07;;;1.58;;
32196;SDS011;18697;42.770;23.400;2023-08-08T06:34:02;1.58;;;1.42;;
32196;SDS011;18697;42.770;23.400;2023-08-08T06:36:28;1.33;;;1.23;;
32196;SDS011;18697;42.770;23.400;2023-08-08T06:38:53;4.50;;;1.55;;
32196;SDS011;18697;42.770;23.400;2023-08-08T06:41:19;1.70;;;1.60;;
32196;SDS011;18697;42.770;23.400;2023-08-08T06:43:44;3.58;;;1.80;;
32196;SDS011;18697;42.770;23.400;2023-08-08T06:46:09;8.75;;;1.92;;
32196;SDS011;18697;42.770;23.400;2023-08-08T06:48:35;2.50;;;1.70;;
32196;SDS011;18697;42.770;23.400;2023-08-08T06:51:00;3.30;;;1.70;;
32196;SDS011;18697;42.770;23.400;2023-08-08T06:53:25;2.28;;;1.80;;
32196;SDS011;18697;42.770;23.400;2023-08-08T06:55:51;3.35;;;1.80;;
32196;SDS011;18697;42.770;23.400;2023-08-08T06:58:16;3.33;;;1.77;;
32196;SDS011;18697;42.770;23.400;2023-08-08T07:00:42;2.10;;;1.80;;
32196;SDS011;18697;42.770;23.400;2023-08-08T07:03:07;1.83;;;1.73;;
32196;SDS011;18697;42.770;23.400;2023-08-08T07:05:32;3.70;;;2.17;;
32196;SDS011;18697;42.770;23.400;2023-08-08T07:07:58;2.80;;;2.60;;
32196;SDS011;18697;42.770;23.400;2023-08-08T07:10:23;2.13;;;2.00;;
32196;SDS011;18697;42.770;23.400;2023-08-08T07:12:48;5.32;;;2.42;;
32196;SDS011;18697;42.770;23.400;2023-08-08T07:15:14;2.00;;;1.90;;
32196;SDS011;18697;42.770;23.400;2023-08-08T07:17:40;3.47;;;1.90;;
32196;SDS011;18697;42.770;23.400;2023-08-08T07:20:05;2.10;;;1.65;;
32196;SDS011;18697;42.770;23.400;2023-08-08T07:22:32;2.30;;;1.42;;
32196;SDS011;18697;42.770;23.400;2023-08-08T07:24:58;2.22;;;1.77;;
32196;SDS011;18697;42.770;23.400;2023-08-08T07:27:26;1.60;;;1.50;;
32196;SDS011;18697;42.770;23.400;2023-08-08T07:29:51;2.13;;;1.45;;
32196;SDS011;18697;42.770;23.400;2023-08-08T07:32:17;2.38;;;1.40;;
32196;SDS011;18697;42.770;23.400;2023-08-08T07:34:42;2.22;;;1.50;;
32196;SDS011;18697;42.770;23.400;2023-08-08T07:37:08;1.55;;;1.45;;
32196;SDS011;18697;42.770;23.400;2023-08-08T07:39:33;4.38;;;1.85;;
32196;SDS011;18697;42.770;23.400;2023-08-08T07:41:58;6.53;;;2.40;;
32196;SDS011;18697;42.770;23.400;2023-08-08T07:44:24;1.92;;;1.80;;
32196;SDS011;18697;42.770;23.400;2023-08-08T07:46:49;1.48;;;1.27;;
32196;SDS011;18697;42.770;23.400;2023-08-08T07:49:14;1.50;;;1.40;;
32196;SDS011;18697;42.770;23.400;2023-08-08T07:51:40;1.88;;;1.60;;
32196;SDS011;18697;42.770;23.400;2023-08-08T07:56:40;1.88;;;1.60;;
32196;SDS011;18697;42.770;23.400;2023-08-08T07:59:07;1.58;;;1.45;;
32196;SDS011;18697;42.770;23.400;2023-08-08T08:01:34;7.07;;;1.83;;
32196;SDS011;18697;42.770;23.400;2023-08-08T08:03:59;8.30;;;1.50;;
32196;SDS011;18697;42.770;23.400;2023-08-08T08:06:25;1.80;;;1.40;;
32196;SDS011;18697;42.770;23.400;2023-08-08T08:08:50;1.67;;;1.23;;
32196;SDS011;18697;42.770;23.400;2023-08-08T08:11:16;2.10;;;1.50;;
32196;SDS011;18697;42.770;23.400;2023-08-08T08:13:41;1.25;;;0.93;;
32196;SDS011;18697;42.770;23.400;2023-08-08T08:16:07;1.30;;;1.20;;
32196;SDS011;18697;42.770;23.400;2023-08-08T08:18:33;2.00;;;1.20;;
32196;SDS011;18697;42.770;23.400;2023-08-08T08:20:58;3.55;;;1.83;;
32196;SDS011;18697;42.770;23.400;2023-08-08T08:23:24;1.50;;;1.40;;
32196;SDS011;18697;42.770;23.400;2023-08-08T08:25:49;1.15;;;1.05;;
32196;SDS011;18697;42.770;23.400;2023-08-08T08:28:15;3.22;;;1.10;;
32196;SDS011;18697;42.770;23.400;2023-08-08T08:30:41;4.60;;;1.05;;
32196;SDS011;18697;42.770;23.400;2023-08-08T08:33:06;0.85;;;0.85;;
32196;SDS011;18697;42.770;23.400;2023-08-08T08:35:33;2.05;;;1.30;;
32196;SDS011;18697;42.770;23.400;2023-08-08T08:37:59;1.88;;;1.10;;
32196;SDS011;18697;42.770;23.400;2023-08-08T08:40:24;1.10;;;1.10;;
32196;SDS011;18697;42.770;23.400;2023-08-08T08:42:52;1.35;;;0.88;;
32196;SDS011;18697;42.770;23.400;2023-08-08T08:45:18;6.03;;;1.42;;
32196;SDS011;18697;42.770;23.400;2023-08-08T08:47:45;1.48;;;1.10;;
32196;SDS011;18697;42.770;23.400;2023-08-08T08:50:13;0.93;;;0.93;;
32196;SDS011;18697;42.770;23.400;2023-08-08T08:52:40;1.30;;;1.20;;
32196;SDS011;18697;42.770;23.400;2023-08-08T08:55:06;1.15;;;1.10;;
32196;SDS011;18697;42.770;23.400;2023-08-08T08:57:32;3.65;;;1.27;;
32196;SDS011;18697;42.770;23.400;2023-08-08T08:59:58;2.47;;;1.45;;
32196;SDS011;18697;42.770;23.400;2023-08-08T09:02:23;4.63;;;1.52;;
32196;SDS011;18697;42.770;23.400;2023-08-08T09:04:49;1.45;;;1.35;;
32196;SDS011;18697;42.770;23.400;2023-08-08T09:07:16;1.80;;;1.70;;
32196;SDS011;18697;42.770;23.400;2023-08-08T09:09:45;1.73;;;1.52;;
32196;SDS011;18697;42.770;23.400;2023-08-08T09:12:11;1.70;;;1.60;;
32196;SDS011;18697;42.770;23.400;2023-08-08T09:14:39;5.85;;;1.88;;
32196;SDS011;18697;42.770;23.400;2023-08-08T09:17:10;1.23;;;1.20;;
32196;SDS011;18697;42.770;23.400;2023-08-08T09:19:37;2.50;;;1.25;;
32196;SDS011;18697;42.770;23.400;2023-08-08T09:22:03;1.10;;;1.10;;
32196;SDS011;18697;42.770;23.400;2023-08-08T09:24:28;1.55;;;1.30;;
32196;SDS011;18697;42.770;23.400;2023-08-08T09:26:54;1.00;;;1.00;;
32196;SDS011;18697;42.770;23.400;2023-08-08T09:29:19;1.55;;;1.10;;
32196;SDS011;18697;42.770;23.400;2023-08-08T09:31:46;1.60;;;1.15;;
32196;SDS011;18697;42.770;23.400;2023-08-08T09:34:12;2.08;;;1.00;;
32196;SDS011;18697;42.770;23.400;2023-08-08T09:36:38;2.80;;;1.30;;
32196;SDS011;18697;42.770;23.400;2023-08-08T09:39:03;18.52;;;2.00;;
32196;SDS011;18697;42.770;23.400;2023-08-08T09:41:29;2.78;;;1.45;;
32196;SDS011;18697;42.770;23.400;2023-08-08T09:43:55;1.40;;;1.30;;
32196;SDS011;18697;42.770;23.400;2023-08-08T09:46:21;1.33;;;1.23;;
32196;SDS011;18697;42.770;23.400;2023-08-08T09:48:48;1.10;;;1.10;;
32196;SDS011;18697;42.770;23.400;2023-08-08T09:51:14;1.35;;;1.27;;
32196;SDS011;18697;42.770;23.400;2023-08-08T09:53:40;2.60;;;1.30;;
32196;SDS011;18697;42.770;23.400;2023-08-08T09:56:06;1.88;;;1.42;;
32196;SDS011;18697;42.770;23.400;2023-08-08T09:58:32;1.35;;;1.30;;
32196;SDS011;18697;42.770;23.400;2023-08-08T10:00:58;1.30;;;1.30;;
32196;SDS011;18697;42.770;23.400;2023-08-08T10:03:24;2.78;;;1.20;;
32196;SDS011;18697;42.770;23.400;2023-08-08T10:05:51;2.05;;;1.40;;
32196;SDS011;18697;42.770;23.400;2023-08-08T10:08:17;1.73;;;1.63;;
32196;SDS011;18697;42.770;23.400;2023-08-08T10:10:44;1.45;;;1.35;;
32196;SDS011;18697;42.770;23.400;2023-08-08T10:13:10;2.55;;;1.40;;
32196;SDS011;18697;42.770;23.400;2023-08-08T10:15:47;1.40;;;1.30;;
32196;SDS011;18697;42.770;23.400;2023-08-08T10:18:13;1.77;;;1.67;;
32196;SDS011;18697;42.770;23.400;2023-08-08T10:20:39;2.00;;;1.65;;
32196;SDS011;18697;42.770;23.400;2023-08-08T10:23:08;1.95;;;1.85;;
32196;SDS011;18697;42.770;23.400;2023-08-08T10:25:33;1.40;;;1.30;;
32196;SDS011;18697;42.770;23.400;2023-08-08T10:30:44;1.92;;;1.77;;
32196;SDS011;18697;42.770;23.400;2023-08-08T10:38:22;2.10;;;1.50;;
32196;SDS011;18697;42.770;23.400;2023-08-08T10:40:53;1.33;;;1.33;;
32196;SDS011;18697;42.770;23.400;2023-08-08T10:43:24;1.50;;;1.40;;
32196;SDS011;18697;42.770;23.400;2023-08-08T10:45:51;1.23;;;1.23;;
32196;SDS011;18697;42.770;23.400;2023-08-08T10:48:17;1.60;;;1.50;;
32196;SDS011;18697;42.770;23.400;2023-08-08T10:50:45;5.47;;;1.40;;
32196;SDS011;18697;42.770;23.400;2023-08-08T10:53:11;1.52;;;1.42;;
32196;SDS011;18697;42.770;23.400;2023-08-08T10:55:37;1.85;;;1.75;;
32196;SDS011;18697;42.770;23.400;2023-08-08T11:00:28;3.88;;;1.40;;
32196;SDS011;18697;42.770;23.400;2023-08-08T11:02:56;2.47;;;1.45;;
32196;SDS011;18697;42.770;23.400;2023-08-08T11:05:23;1.67;;;1.10;;
32196;SDS011;18697;42.770;23.400;2023-08-08T11:07:49;2.95;;;1.10;;
32196;SDS011;18697;42.770;23.400;2023-08-08T11:10:15;1.30;;;1.20;;
32196;SDS011;18697;42.770;23.400;2023-08-08T11:12:41;1.33;;;1.23;;
32196;SDS011;18697;42.770;23.400;2023-08-08T11:15:06;1.15;;;1.15;;
32196;SDS011;18697;42.770;23.400;2023-08-08T11:17:32;2.65;;;1.30;;
32196;SDS011;18697;42.770;23.400;2023-08-08T11:19:57;1.10;;;1.10;;
32196;SDS011;18697;42.770;23.400;2023-08-08T11:22:23;1.42;;;1.20;;
32196;SDS011;18697;42.770;23.400;2023-08-08T11:24:48;1.13;;;0.98;;
32196;SDS011;18697;42.770;23.400;2023-08-08T11:27:15;0.88;;;0.88;;
32196;SDS011;18697;42.770;23.400;2023-08-08T11:29:48;1.10;;;1.00;;
32196;SDS011;18697;42.770;23.400;2023-08-08T11:32:15;1.35;;;1.00;;
32196;SDS011;18697;42.770;23.400;2023-08-08T11:34:41;1.83;;;1.10;;
32196;SDS011;18697;42.770;23.400;2023-08-08T11:37:06;1.30;;;1.20;;
32196;SDS011;18697;42.770;23.400;2023-08-08T11:39:32;1.00;;;1.00;;
32196;SDS011;18697;42.770;23.400;2023-08-08T11:41:57;1.00;;;1.00;;
32196;SDS011;18697;42.770;23.400;2023-08-08T11:44:23;1.00;;;0.90;;
32196;SDS011;18697;42.770;23.400;2023-08-08T11:46:49;4.00;;;0.88;;
32196;SDS011;18697;42.770;23.400;2023-08-08T11:49:15;0.93;;;0.93;;
32196;SDS011;18697;42.770;23.400;2023-08-08T11:51:44;2.67;;;1.05;;
32196;SDS011;18697;42.770;23.400;2023-08-08T11:54:10;1.45;;;0.90;;
32196;SDS011;18697;42.770;23.400;2023-08-08T11:56:36;1.10;;;1.00;;
32196;SDS011;18697;42.770;23.400;2023-08-08T11:59:04;1.92;;;1.38;;
32196;SDS011;18697;42.770;23.400;2023-08-08T12:01:31;1.15;;;1.00;;
32196;SDS011;18697;42.770;23.400;2023-08-08T12:03:58;1.85;;;0.90;;
32196;SDS011;18697;42.770;23.400;2023-08-08T12:06:29;2.10;;;1.10;;
32196;SDS011;18697;42.770;23.400;2023-08-08T12:08:54;0.90;;;0.90;;
32196;SDS011;18697;42.770;23.400;2023-08-08T12:11:20;5.22;;;4.75;;
32196;SDS011;18697;42.770;23.400;2023-08-08T12:13:45;2.28;;;1.15;;
32196;SDS011;18697;42.770;23.400;2023-08-08T12:16:13;1.75;;;1.00;;
32196;SDS011;18697;42.770;23.400;2023-08-08T12:18:39;1.70;;;1.30;;
32196;SDS011;18697;42.770;23.400;2023-08-08T12:21:06;1.40;;;1.00;;
32196;SDS011;18697;42.770;23.400;2023-08-08T12:23:32;2.00;;;1.00;;
32196;SDS011;18697;42.770;23.400;2023-08-08T12:25:58;3.30;;;0.90;;
32196;SDS011;18697;42.770;23.400;2023-08-08T12:28:24;2.47;;;1.98;;
32196;SDS011;18697;42.770;23.400;2023-08-08T12:30:50;1.10;;;0.95;;
32196;SDS011;18697;42.770;23.400;2023-08-08T12:33:15;1.65;;;1.00;;
32196;SDS011;18697;42.770;23.400;2023-08-08T12:35:41;0.82;;;0.82;;
32196;SDS011;18697;42.770;23.400;2023-08-08T12:38:06;1.25;;;0.90;;
32196;SDS011;18697;42.770;23.400;2023-08-08T12:40:32;1.27;;;0.80;;
32196;SDS011;18697;42.770;23.400;2023-08-08T12:42:59;2.05;;;0.90;;
32196;SDS011;18697;42.770;23.400;2023-08-08T12:45:24;1.25;;;0.90;;
32196;SDS011;18697;42.770;23.400;2023-08-08T12:47:50;0.68;;;0.68;;
32196;SDS011;18697;42.770;23.400;2023-08-08T12:50:15;2.10;;;0.70;;
32196;SDS011;18697;42.770;23.400;2023-08-08T12:52:41;0.60;;;0.60;;
32196;SDS011;18697;42.770;23.400;2023-08-08T12:55:06;0.82;;;0.82;;
32196;SDS011;18697;42.770;23.400;2023-08-08T12:57:32;1.83;;;0.98;;
32196;SDS011;18697;42.770;23.400;2023-08-08T12:59:58;1.05;;;1.00;;
32196;SDS011;18697;42.770;23.400;2023-08-08T13:02:24;0.70;;;0.70;;
32196;SDS011;18697;42.770;23.400;2023-08-08T13:04:49;1.85;;;0.95;;
32196;SDS011;18697;42.770;23.400;2023-08-08T13:07:15;1.30;;;1.20;;
32196;SDS011;18697;42.770;23.400;2023-08-08T13:09:41;0.80;;;0.80;;
32196;SDS011;18697;42.770;23.400;2023-08-08T13:12:06;1.00;;;1.00;;
32196;SDS011;18697;42.770;23.400;2023-08-08T13:14:32;1.10;;;1.10;;
32196;SDS011;18697;42.770;23.400;2023-08-08T13:16:58;0.80;;;0.80;;
32196;SDS011;18697;42.770;23.400;2023-08-08T13:19:23;1.05;;;0.80;;
32196;SDS011;18697;42.770;23.400;2023-08-08T13:21:50;0.73;;;0.73;;
32196;SDS011;18697;42.770;23.400;2023-08-08T13:24:17;1.38;;;0.80;;
32196;SDS011;18697;42.770;23.400;2023-08-08T13:26:43;1.45;;;0.95;;
32196;SDS011;18697;42.770;23.400;2023-08-08T13:29:08;1.88;;;0.80;;
32196;SDS011;18697;42.770;23.400;2023-08-08T13:31:34;0.80;;;0.80;;
32196;SDS011;18697;42.770;23.400;2023-08-08T13:33:59;1.65;;;0.70;;
32196;SDS011;18697;42.770;23.400;2023-08-08T13:36:24;0.75;;;0.75;;
32196;SDS011;18697;42.770;23.400;2023-08-08T13:38:50;1.45;;;0.77;;
32196;SDS011;18697;42.770;23.400;2023-08-08T13:41:15;4.47;;;0.70;;
32196;SDS011;18697;42.770;23.400;2023-08-08T13:43:41;2.67;;;0.90;;
32196;SDS011;18697;42.770;23.400;2023-08-08T13:46:06;1.08;;;0.90;;
32196;SDS011;18697;42.770;23.400;2023-08-08T13:48:34;0.98;;;0.98;;
32196;SDS011;18697;42.770;23.400;2023-08-08T13:51:00;1.25;;;0.70;;
32196;SDS011;18697;42.770;23.400;2023-08-08T13:53:25;1.48;;;0.80;;
32196;SDS011;18697;42.770;23.400;2023-08-08T13:55:51;0.90;;;0.90;;
32196;SDS011;18697;42.770;23.400;2023-08-08T13:58:16;0.95;;;0.90;;
32196;SDS011;18697;42.770;23.400;2023-08-08T14:00:41;1.40;;;0.90;;
32196;SDS011;18697;42.770;23.400;2023-08-08T14:03:07;2.05;;;0.93;;
32196;SDS011;18697;42.770;23.400;2023-08-08T14:05:33;2.63;;;0.80;;
32196;SDS011;18697;42.770;23.400;2023-08-08T14:07:59;2.15;;;0.73;;
32196;SDS011;18697;42.770;23.400;2023-08-08T14:10:24;0.88;;;0.88;;
32196;SDS011;18697;42.770;23.400;2023-08-08T14:12:50;5.30;;;0.88;;
32196;SDS011;18697;42.770;23.400;2023-08-08T14:15:15;0.70;;;0.70;;
32196;SDS011;18697;42.770;23.400;2023-08-08T14:17:40;4.05;;;0.90;;
32196;SDS011;18697;42.770;23.400;2023-08-08T14:20:06;1.02;;;0.88;;
32196;SDS011;18697;42.770;23.400;2023-08-08T14:22:33;2.05;;;0.70;;
32196;SDS011;18697;42.770;23.400;2023-08-08T14:24:59;0.75;;;0.75;;
32196;SDS011;18697;42.770;23.400;2023-08-08T14:27:25;2.08;;;0.63;;
32196;SDS011;18697;42.770;23.400;2023-08-08T14:29:50;0.70;;;0.70;;
32196;SDS011;18697;42.770;23.400;2023-08-08T14:32:15;1.05;;;0.68;;
32196;SDS011;18697;42.770;23.400;2023-08-08T14:34:42;0.70;;;0.70;;
32196;SDS011;18697;42.770;23.400;2023-08-08T14:37:07;0.77;;;0.77;;
32196;SDS011;18697;42.770;23.400;2023-08-08T14:39:33;3.85;;;1.58;;
32196;SDS011;18697;42.770;23.400;2023-08-08T14:41:58;0.65;;;0.65;;